createdAt,value
2023-03-18T00:01:01.640Z,5.55
2023-03-18T00:06:06.335Z,5.68
2023-03-18T00:11:09.945Z,5.72
2023-03-18T00:16:13.542Z,5.38
2023-03-18T00:21:16.388Z,5.55
2023-03-18T00:26:18.521Z,5.32
2023-03-18T00:31:22.133Z,5.03
2023-03-18T00:36:24.277Z,5.18
2023-03-18T00:41:27.772Z,4.07
2023-03-18T00:46:33.644Z,4.30
2023-03-18T00:51:37.516Z,3.63
2023-03-18T00:56:40.862Z,3.50
2023-03-18T01:01:44.540Z,3.65
2023-03-18T01:06:46.663Z,3.55
2023-03-18T01:11:48.788Z,3.22
2023-03-18T01:16:52.466Z,3.65
2023-03-18T01:21:54.666Z,3.30
2023-03-18T01:26:56.801Z,2.90
2023-03-18T01:32:00.445Z,3.25
2023-03-18T01:37:02.694Z,3.20
2023-03-18T01:42:05.185Z,3.00
2023-03-18T01:47:09.781Z,3.33
2023-03-18T01:52:16.577Z,3.00
2023-03-18T01:57:20.577Z,3.38
2023-03-18T02:02:25.241Z,3.30
2023-03-18T02:07:30.417Z,3.15
2023-03-18T02:12:35.437Z,3.25
2023-03-18T02:17:42.000Z,2.75
2023-03-18T02:22:48.860Z,3.13
2023-03-18T02:27:56.748Z,3.45
2023-03-18T02:33:00.184Z,3.10
2023-03-18T02:38:03.093Z,3.85
2023-03-18T02:43:22.809Z,3.58
2023-03-18T02:48:30.668Z,3.70
2023-03-18T02:53:32.836Z,3.78
2023-03-18T02:58:37.023Z,3.75
2023-03-18T03:03:39.879Z,3.67
2023-03-18T03:08:41.994Z,4.18
2023-03-18T03:13:45.850Z,4.65
2023-03-18T03:18:47.948Z,5.50
2023-03-18T03:23:50.191Z,5.88
2023-03-18T03:28:53.836Z,6.57
2023-03-18T03:33:56.028Z,7.60
2023-03-18T03:38:58.147Z,7.18
2023-03-18T03:44:01.736Z,7.30
2023-03-18T03:49:03.957Z,7.53
2023-03-18T03:54:06.183Z,7.95
2023-03-18T03:59:10.060Z,8.07
2023-03-18T04:04:12.271Z,8.48
2023-03-18T04:09:14.541Z,8.35
2023-03-18T04:14:18.068Z,8.18
2023-03-18T04:19:20.172Z,8.63
2023-03-18T04:24:22.344Z,9.05
2023-03-18T04:29:25.900Z,8.40
2023-03-18T04:34:27.951Z,8.75
2023-03-18T04:39:30.070Z,9.00
2023-03-18T04:44:33.729Z,8.75
2023-03-18T04:49:36.261Z,9.25
2023-03-18T04:54:38.359Z,9.63
2023-03-18T04:59:41.945Z,10.13
2023-03-18T05:04:44.146Z,10.88
2023-03-18T05:09:46.456Z,10.70
2023-03-18T05:14:50.034Z,11.77
2023-03-18T05:19:52.166Z,11.63
2023-03-18T05:24:54.392Z,11.80
2023-03-18T05:29:58.120Z,11.30
2023-03-18T05:35:00.285Z,11.85
2023-03-18T05:40:02.404Z,11.95
2023-03-18T05:45:07.225Z,11.52
2023-03-18T05:50:10.633Z,12.18
2023-03-18T05:55:14.199Z,12.07
2023-03-18T06:00:18.549Z,13.00
2023-03-18T06:05:21.827Z,11.82
2023-03-18T06:10:25.271Z,12.32
2023-03-18T06:15:30.362Z,11.85
2023-03-18T06:20:32.643Z,11.25
2023-03-18T06:25:34.923Z,15.45
2023-03-18T06:30:38.469Z,13.40
2023-03-18T06:35:40.729Z,13.57
2023-03-18T06:40:43.176Z,11.00
2023-03-18T06:45:46.801Z,12.88
2023-03-18T06:50:49.019Z,10.68
2023-03-18T06:55:51.179Z,10.90
2023-03-18T07:00:54.693Z,10.38
2023-03-18T07:05:56.947Z,9.95
2023-03-18T07:10:59.129Z,10.93
2023-03-18T07:16:02.767Z,9.68
2023-03-18T07:21:05.353Z,9.32
2023-03-18T07:26:07.533Z,9.23
2023-03-18T07:31:11.097Z,10.43
2023-03-18T07:36:13.283Z,11.05
2023-03-18T07:41:15.425Z,11.55
2023-03-18T07:46:18.966Z,10.02
2023-03-18T07:51:21.411Z,10.15
2023-03-18T07:56:23.536Z,10.23
2023-03-18T08:01:27.772Z,8.85
2023-03-18T08:06:30.059Z,9.20
2023-03-18T08:11:52.578Z,9.13
2023-03-18T08:22:42.343Z,9.23
2023-03-18T08:27:44.465Z,9.52
2023-03-18T08:32:48.206Z,9.30
2023-03-18T08:37:50.460Z,10.57
2023-03-18T08:42:52.566Z,9.73
2023-03-18T08:47:56.133Z,10.88
2023-03-18T08:53:00.123Z,9.80
2023-03-18T08:58:03.838Z,9.50
2023-03-18T09:03:07.480Z,10.75
2023-03-18T09:08:09.766Z,9.05
2023-03-18T09:13:12.107Z,8.35
2023-03-18T09:18:15.921Z,9.00
2023-03-18T09:23:18.151Z,8.35
2023-03-18T09:28:20.604Z,9.10
2023-03-18T09:33:24.280Z,8.35
2023-03-18T09:38:26.538Z,8.20
2023-03-18T09:43:54.507Z,7.30
2023-03-18T09:49:25.565Z,7.30
2023-03-18T09:54:35.186Z,7.30
2023-03-18T09:59:41.626Z,7.45
2023-03-18T10:04:49.460Z,7.28
2023-03-18T10:09:55.481Z,6.95
2023-03-18T10:15:14.691Z,8.13
2023-03-18T10:20:22.633Z,6.95
2023-03-18T10:25:29.664Z,6.88
2023-03-18T10:35:48.210Z,7.60
2023-03-18T10:40:50.499Z,7.00
2023-03-18T10:46:01.598Z,7.88
2023-03-18T10:51:12.845Z,7.40
2023-03-18T10:56:15.927Z,7.80
2023-03-18T11:01:22.956Z,7.30
2023-03-18T11:06:35.605Z,7.75
2023-03-18T11:11:40.737Z,5.85
2023-03-18T11:16:47.165Z,5.88
2023-03-18T11:22:00.946Z,7.30
2023-03-18T11:27:03.619Z,6.47
2023-03-18T11:32:22.994Z,4.65
2023-03-18T11:37:33.662Z,6.47
2023-03-18T11:42:39.600Z,7.72
2023-03-18T11:47:41.836Z,8.07
2023-03-18T11:52:51.813Z,6.85
2023-03-18T11:58:18.516Z,9.75
2023-03-18T12:03:36.892Z,11.15
2023-03-18T12:08:52.786Z,10.68
2023-03-18T12:14:04.426Z,10.20
2023-03-18T12:19:31.414Z,12.48
2023-03-18T12:24:52.944Z,11.48
2023-03-18T12:30:22.356Z,10.25
2023-03-18T12:35:40.277Z,9.68
2023-03-18T12:40:55.920Z,8.32
2023-03-18T12:46:03.852Z,8.70
2023-03-18T12:51:10.612Z,8.23
2023-03-18T12:56:18.657Z,7.85
2023-03-18T13:01:24.601Z,7.57
2023-03-18T13:06:34.777Z,7.80
2023-03-18T13:11:59.877Z,7.78
2023-03-18T13:17:03.041Z,6.82
2023-03-18T13:22:23.596Z,6.55
2023-03-18T13:28:04.534Z,6.63
2023-03-18T13:33:26.318Z,6.60
2023-03-18T13:38:52.170Z,8.25
2023-03-18T13:43:58.661Z,7.50
2023-03-18T13:49:02.848Z,7.07
2023-03-18T13:54:12.364Z,6.47
2023-03-18T13:59:47.441Z,5.82
2023-03-18T14:04:51.766Z,5.05
2023-03-18T14:10:18.800Z,3.28
2023-03-18T14:15:42.208Z,3.20
2023-03-18T14:20:44.922Z,3.70
2023-03-18T14:25:50.007Z,3.60
2023-03-18T14:31:35.465Z,3.55
2023-03-18T14:36:59.863Z,3.25
2023-03-18T14:42:06.017Z,4.40
2023-03-18T14:47:31.938Z,4.17
2023-03-18T14:52:43.226Z,3.90
2023-03-18T14:57:45.849Z,3.67
2023-03-18T15:02:54.386Z,3.80
2023-03-18T15:07:56.643Z,3.28
2023-03-18T15:13:01.720Z,3.28
2023-03-18T15:18:17.555Z,2.63
2023-03-18T15:23:28.321Z,2.80
2023-03-18T15:28:30.695Z,2.58
2023-03-18T15:33:37.551Z,2.20
2023-03-18T15:38:47.084Z,2.50
2023-03-18T15:43:51.297Z,2.17
2023-03-18T15:48:56.674Z,2.13
2023-03-18T15:54:04.391Z,2.38
2023-03-18T15:59:12.964Z,2.70
2023-03-18T16:04:18.447Z,2.55
2023-03-18T16:09:22.208Z,2.30
2023-03-18T16:14:28.764Z,2.42
2023-03-18T16:19:32.365Z,2.47
2023-03-18T16:24:34.499Z,2.95
2023-03-18T16:29:37.756Z,2.88
2023-03-18T16:34:41.284Z,3.03
2023-03-18T16:39:43.546Z,3.03
2023-03-18T16:44:45.653Z,2.85
2023-03-18T16:49:49.540Z,2.75
2023-03-18T16:54:51.705Z,2.88
2023-03-18T16:59:54.619Z,2.88
2023-03-18T17:04:58.442Z,2.95
2023-03-18T17:10:00.789Z,3.17
2023-03-18T17:15:04.306Z,3.35
2023-03-18T17:20:17.245Z,3.67
2023-03-18T17:25:19.557Z,3.20
2023-03-18T17:30:26.489Z,3.15
2023-03-18T17:35:30.199Z,2.75
2023-03-18T17:40:32.401Z,2.15
2023-03-18T17:45:35.611Z,2.38
2023-03-18T17:50:40.240Z,2.20
2023-03-18T17:55:42.343Z,2.38
2023-03-18T18:00:45.787Z,3.08
2023-03-18T18:05:49.692Z,2.50
2023-03-18T18:10:55.356Z,3.97
2023-03-18T18:15:57.600Z,3.20
2023-03-18T18:21:02.904Z,4.70
2023-03-18T18:26:07.292Z,4.05
2023-03-18T18:31:11.854Z,4.65
2023-03-18T18:36:15.653Z,4.30
2023-03-18T18:41:17.800Z,1.20
2023-03-18T18:46:19.998Z,0.90
2023-03-18T18:51:25.055Z,1.00
2023-03-18T18:56:33.056Z,1.27
2023-03-18T19:01:35.165Z,1.23
2023-03-18T19:06:38.764Z,1.20
2023-03-18T19:11:40.942Z,1.20
2023-03-18T19:16:43.074Z,1.20
2023-03-18T19:21:46.972Z,1.70
2023-03-18T19:26:49.037Z,2.80
2023-03-18T19:31:51.505Z,2.20
2023-03-18T19:36:56.529Z,2.83
2023-03-18T19:41:58.751Z,2.05
2023-03-18T19:47:00.866Z,1.90
2023-03-18T19:52:11.445Z,2.13
2023-03-18T19:57:16.863Z,1.65
2023-03-18T20:02:22.055Z,1.60
2023-03-18T20:07:27.661Z,1.80
2023-03-18T20:12:34.009Z,1.70
2023-03-18T20:17:39.718Z,2.35
2023-03-18T20:22:47.877Z,2.58
2023-03-18T20:27:50.449Z,4.22
2023-03-18T20:32:52.639Z,2.38
2023-03-18T20:37:58.276Z,2.30
2023-03-18T20:43:00.397Z,3.63
2023-03-18T20:48:02.571Z,4.20
2023-03-18T20:53:11.274Z,3.90
2023-03-18T20:58:16.227Z,4.50
2023-03-18T21:03:23.408Z,4.00
2023-03-18T21:08:28.178Z,3.92
2023-03-18T21:13:32.694Z,4.13
2023-03-18T21:18:34.910Z,3.38
2023-03-18T21:23:38.516Z,4.80
2023-03-18T21:28:40.672Z,4.88
2023-03-18T21:33:42.750Z,5.53
2023-03-18T21:38:46.413Z,6.18
2023-03-18T21:43:49.262Z,4.88
2023-03-18T21:48:51.497Z,5.50
2023-03-18T21:53:55.191Z,4.85
2023-03-18T21:58:57.321Z,4.57
2023-03-18T22:03:59.512Z,5.63
2023-03-18T22:09:03.142Z,5.80
2023-03-18T22:14:05.254Z,13.65
2023-03-18T22:19:07.420Z,7.60
2023-03-18T22:24:14.432Z,7.50
2023-03-18T22:29:17.193Z,6.72
2023-03-18T22:34:23.199Z,8.60
2023-03-18T22:39:26.765Z,7.25
2023-03-18T22:44:28.937Z,9.05
2023-03-18T22:49:31.064Z,6.05
2023-03-18T22:54:34.588Z,6.53
2023-03-18T22:59:36.842Z,5.60
2023-03-18T23:04:39.020Z,7.05
2023-03-18T23:09:56.117Z,6.65
2023-03-18T23:14:59.159Z,7.40
2023-03-18T23:20:01.332Z,6.30
2023-03-18T23:25:06.114Z,6.38
2023-03-18T23:30:09.704Z,6.18
2023-03-18T23:35:11.980Z,5.93
2023-03-18T23:40:15.907Z,5.90
2023-03-18T23:45:18.287Z,5.50
2023-03-18T23:50:20.584Z,7.03
2023-03-18T23:55:34.038Z,7.32
